sensor_id;sensor_type;location;lat;lon;timestamp;pressure;altitude;pressure_sealevel;temperature
24740;BMP280;45234;48.148;17.128;2022-10-23T00:01:38;100430.22;;;12.58
24740;BMP280;45234;48.148;17.128;2022-10-23T00:04:06;100439.00;;;12.51
24740;BMP280;45234;48.148;17.128;2022-10-23T00:06:33;100443.00;;;12.47
24740;BMP280;45234;48.148;17.128;2022-10-23T00:09:00;100443.00;;;12.47
24740;BMP280;45234;48.148;17.128;2022-10-23T00:11:28;100440.56;;;12.39
24740;BMP280;45234;48.148;17.128;2022-10-23T00:13:57;100443.34;;;12.37
24740;BMP280;45234;48.148;17.128;2022-10-23T00:16:24;100443.53;;;12.36
24740;BMP280;45234;48.148;17.128;2022-10-23T00:18:51;100450.09;;;12.31
24740;BMP280;45234;48.148;17.128;2022-10-23T00:21:17;100448.91;;;12.27
24740;BMP280;45234;48.148;17.128;2022-10-23T00:23:44;100451.50;;;12.27
24740;BMP280;45234;48.148;17.128;2022-10-23T00:26:11;100431.09;;;12.24
24740;BMP280;45234;48.148;17.128;2022-10-23T00:28:44;100442.09;;;12.26
24740;BMP280;45234;48.148;17.128;2022-10-23T00:31:12;100448.91;;;12.27
24740;BMP280;45234;48.148;17.128;2022-10-23T00:33:39;100443.72;;;12.27
24740;BMP280;45234;48.148;17.128;2022-10-23T00:36:07;100441.31;;;12.26
24740;BMP280;45234;48.148;17.128;2022-10-23T00:38:34;100442.50;;;12.23
24740;BMP280;45234;48.148;17.128;2022-10-23T00:41:00;100439.28;;;12.21
24740;BMP280;45234;48.148;17.128;2022-10-23T00:43:28;100438.66;;;12.19
24740;BMP280;45234;48.148;17.128;2022-10-23T00:45:55;100446.47;;;12.19
24740;BMP280;45234;48.148;17.128;2022-10-23T00:48:21;100432.84;;;12.17
24740;BMP280;45234;48.148;17.128;2022-10-23T00:50:49;100448.44;;;12.17
24740;BMP280;45234;48.148;17.128;2022-10-23T00:53:16;100449.59;;;12.08
24740;BMP280;45234;48.148;17.128;2022-10-23T00:55:44;100448.34;;;11.97
24740;BMP280;45234;48.148;17.128;2022-10-23T00:58:13;100450.91;;;11.91
24740;BMP280;45234;48.148;17.128;2022-10-23T01:00:50;100452.06;;;11.88
24740;BMP280;45234;48.148;17.128;2022-10-23T01:03:18;100456.06;;;11.84
24740;BMP280;45234;48.148;17.128;2022-10-23T01:05:50;100457.22;;;11.82
24740;BMP280;45234;48.148;17.128;2022-10-23T01:08:29;100461.38;;;11.76
24740;BMP280;45234;48.148;17.128;2022-10-23T01:10:59;100457.16;;;11.69
24740;BMP280;45234;48.148;17.128;2022-10-23T01:21:11;100453.00;;;11.53
24740;BMP280;45234;48.148;17.128;2022-10-23T01:29:56;100463.69;;;11.43
24740;BMP280;45234;48.148;17.128;2022-10-23T01:34:40;100467.41;;;11.34
24740;BMP280;45234;48.148;17.128;2022-10-23T01:37:10;100466.81;;;11.32
24740;BMP280;45234;48.148;17.128;2022-10-23T01:39:39;100457.59;;;11.29
24740;BMP280;45234;48.148;17.128;2022-10-23T01:42:10;100457.41;;;11.31
24740;BMP280;45234;48.148;17.128;2022-10-23T01:44:41;100464.22;;;11.32
24740;BMP280;45234;48.148;17.128;2022-10-23T01:47:11;100474.59;;;11.32
24740;BMP280;45234;48.148;17.128;2022-10-23T01:49:56;100461.81;;;11.31
24740;BMP280;45234;48.148;17.128;2022-10-23T01:52:24;100467.97;;;11.29
24740;BMP280;45234;48.148;17.128;2022-10-23T01:54:52;100473.00;;;11.31
24740;BMP280;45234;48.148;17.128;2022-10-23T01:57:20;100475.94;;;11.28
24740;BMP280;45234;48.148;17.128;2022-10-23T01:59:52;100475.78;;;11.29
24740;BMP280;45234;48.148;17.128;2022-10-23T02:02:21;100476.50;;;11.23
24740;BMP280;45234;48.148;17.128;2022-10-23T02:04:54;100467.47;;;11.19
24740;BMP280;45234;48.148;17.128;2022-10-23T02:07:22;100471.88;;;11.19
24740;BMP280;45234;48.148;17.128;2022-10-23T02:09:49;100471.88;;;11.19
24740;BMP280;45234;48.148;17.128;2022-10-23T02:15:45;100480.38;;;11.13
24740;BMP280;45234;48.148;17.128;2022-10-23T02:20:37;100473.69;;;11.04
24740;BMP280;45234;48.148;17.128;2022-10-23T02:25:35;100478.25;;;11.02
24740;BMP280;45234;48.148;17.128;2022-10-23T02:28:06;100481.84;;;11.01
24740;BMP280;45234;48.148;17.128;2022-10-23T02:30:41;100480.00;;;10.94
24740;BMP280;45234;48.148;17.128;2022-10-23T02:33:11;100476.50;;;10.87
24740;BMP280;45234;48.148;17.128;2022-10-23T02:35:39;100485.66;;;10.83
24740;BMP280;45234;48.148;17.128;2022-10-23T02:44:31;100479.94;;;10.73
24740;BMP280;45234;48.148;17.128;2022-10-23T02:54:14;100492.09;;;10.58
24740;BMP280;45234;48.148;17.128;2022-10-23T02:59:46;100495.13;;;10.47
24740;BMP280;45234;48.148;17.128;2022-10-23T03:02:23;100490.69;;;10.41
24740;BMP280;45234;48.148;17.128;2022-10-23T03:04:51;100498.47;;;10.41
24740;BMP280;45234;48.148;17.128;2022-10-23T03:07:19;100492.63;;;10.39
24740;BMP280;45234;48.148;17.128;2022-10-23T03:09:46;100498.56;;;10.33
24740;BMP280;45234;48.148;17.128;2022-10-23T03:12:13;100498.88;;;10.29
24740;BMP280;45234;48.148;17.128;2022-10-23T03:14:40;100503.19;;;10.22
24740;BMP280;45234;48.148;17.128;2022-10-23T03:17:06;100502.63;;;10.12
24740;BMP280;45234;48.148;17.128;2022-10-23T03:19:33;100502.16;;;10.09
24740;BMP280;45234;48.148;17.128;2022-10-23T03:22:02;100498.75;;;10.08
24740;BMP280;45234;48.148;17.128;2022-10-23T03:24:28;100501.34;;;10.08
24740;BMP280;45234;48.148;17.128;2022-10-23T03:26:55;100499.56;;;10.09
24740;BMP280;45234;48.148;17.128;2022-10-23T03:29:28;100508.31;;;10.08
24740;BMP280;45234;48.148;17.128;2022-10-23T03:31:55;100509.31;;;10.07
24740;BMP280;45234;48.148;17.128;2022-10-23T03:34:22;100501.72;;;10.05
24740;BMP280;45234;48.148;17.128;2022-10-23T03:36:52;100503.66;;;10.03
24740;BMP280;45234;48.148;17.128;2022-10-23T03:39:21;100503.66;;;10.03
24740;BMP280;45234;48.148;17.128;2022-10-23T03:41:47;100509.22;;;10.00
24740;BMP280;45234;48.148;17.128;2022-10-23T03:44:15;100516.34;;;9.98
24740;BMP280;45234;48.148;17.128;2022-10-23T03:46:43;100516.25;;;9.91
24740;BMP280;45234;48.148;17.128;2022-10-23T03:49:10;100522.91;;;9.86
24740;BMP280;45234;48.148;17.128;2022-10-23T03:51:42;100522.00;;;9.79
24740;BMP280;45234;48.148;17.128;2022-10-23T03:54:09;100507.03;;;9.66
24740;BMP280;45234;48.148;17.128;2022-10-23T03:56:36;100525.34;;;9.65
24740;BMP280;45234;48.148;17.128;2022-10-23T03:59:05;100524.81;;;9.69
24740;BMP280;45234;48.148;17.128;2022-10-23T04:01:32;100528.69;;;9.73
24740;BMP280;45234;48.148;17.128;2022-10-23T04:03:59;100520.75;;;9.75
24740;BMP280;45234;48.148;17.128;2022-10-23T04:06:26;100519.94;;;9.74
24740;BMP280;45234;48.148;17.128;2022-10-23T04:08:55;100524.78;;;9.77
24740;BMP280;45234;48.148;17.128;2022-10-23T04:11:22;100518.91;;;9.83
24740;BMP280;45234;48.148;17.128;2022-10-23T04:13:49;100519.00;;;9.90
24740;BMP280;45234;48.148;17.128;2022-10-23T04:16:15;100519.19;;;9.88
24740;BMP280;45234;48.148;17.128;2022-10-23T04:18:43;100514.59;;;9.76
24740;BMP280;45234;48.148;17.128;2022-10-23T04:21:09;100526.94;;;9.66
24740;BMP280;45234;48.148;17.128;2022-10-23T04:23:37;100515.31;;;9.61
24740;BMP280;45234;48.148;17.128;2022-10-23T04:26:09;100515.31;;;9.61
24740;BMP280;45234;48.148;17.128;2022-10-23T04:28:35;100517.56;;;9.65
24740;BMP280;45234;48.148;17.128;2022-10-23T04:31:02;100518.09;;;9.60
24740;BMP280;45234;48.148;17.128;2022-10-23T04:33:30;100502.56;;;9.60
24740;BMP280;45234;48.148;17.128;2022-10-23T04:35:56;100508.91;;;9.57
24740;BMP280;45234;48.148;17.128;2022-10-23T04:38:23;100511.97;;;9.53
24740;BMP280;45234;48.148;17.128;2022-10-23T04:40:51;100521.84;;;9.57
24740;BMP280;45234;48.148;17.128;2022-10-23T04:43:21;100522.56;;;9.66
24740;BMP280;45234;48.148;17.128;2022-10-23T04:45:48;100527.06;;;9.72
24740;BMP280;45234;48.148;17.128;2022-10-23T04:48:16;100521.19;;;9.78
24740;BMP280;45234;48.148;17.128;2022-10-23T04:51:12;100519.59;;;9.77
24740;BMP280;45234;48.148;17.128;2022-10-23T04:53:57;100512.69;;;9.70
24740;BMP280;45234;48.148;17.128;2022-10-23T04:56:40;100513.50;;;9.70
24740;BMP280;45234;48.148;17.128;2022-10-23T04:59:13;100512.34;;;9.73
24740;BMP280;45234;48.148;17.128;2022-10-23T05:01:41;100515.03;;;9.79
24740;BMP280;45234;48.148;17.128;2022-10-23T05:04:08;100516.94;;;9.85
24740;BMP280;45234;48.148;17.128;2022-10-23T05:06:57;100520.00;;;9.89
24740;BMP280;45234;48.148;17.128;2022-10-23T05:09:55;100527.31;;;9.85
24740;BMP280;45234;48.148;17.128;2022-10-23T05:12:37;100524.38;;;9.88
24740;BMP280;45234;48.148;17.128;2022-10-23T05:15:04;100526.94;;;9.88
24740;BMP280;45234;48.148;17.128;2022-10-23T05:17:34;100523.28;;;9.83
24740;BMP280;45234;48.148;17.128;2022-10-23T05:20:03;100529.13;;;9.77
24740;BMP280;45234;48.148;17.128;2022-10-23T05:22:31;100524.00;;;9.69
24740;BMP280;45234;48.148;17.128;2022-10-23T05:25:03;100526.22;;;9.57
24740;BMP280;45234;48.148;17.128;2022-10-23T05:27:37;100528.66;;;9.50
24740;BMP280;45234;48.148;17.128;2022-10-23T05:30:08;100530.31;;;9.43
24740;BMP280;45234;48.148;17.128;2022-10-23T05:32:36;100536.78;;;9.47
24740;BMP280;45234;48.148;17.128;2022-10-23T05:35:06;100537.75;;;9.46
24740;BMP280;45234;48.148;17.128;2022-10-23T05:37:35;100529.94;;;9.54
24740;BMP280;45234;48.148;17.128;2022-10-23T05:40:10;100533.19;;;9.56
24740;BMP280;45234;48.148;17.128;2022-10-23T05:42:38;100535.41;;;9.59
24740;BMP280;45234;48.148;17.128;2022-10-23T05:45:09;100528.44;;;9.60
24740;BMP280;45234;48.148;17.128;2022-10-23T05:47:59;100537.28;;;9.66
24740;BMP280;45234;48.148;17.128;2022-10-23T05:51:04;100534.06;;;9.64
24740;BMP280;45234;48.148;17.128;2022-10-23T05:53:42;100532.63;;;9.61
24740;BMP280;45234;48.148;17.128;2022-10-23T05:56:38;100532.13;;;9.66
24740;BMP280;45234;48.148;17.128;2022-10-23T05:59:27;100536.97;;;9.69
24740;BMP280;45234;48.148;17.128;2022-10-23T06:02:32;100541.78;;;9.72
24740;BMP280;45234;48.148;17.128;2022-10-23T06:05:09;100543.53;;;9.79
24740;BMP280;45234;48.148;17.128;2022-10-23T06:07:48;100550.72;;;9.92
24740;BMP280;45234;48.148;17.128;2022-10-23T06:10:16;100555.84;;;10.00
24740;BMP280;45234;48.148;17.128;2022-10-23T06:12:44;100557.44;;;10.01
24740;BMP280;45234;48.148;17.128;2022-10-23T06:15:15;100551.56;;;10.07
24740;BMP280;45234;48.148;17.128;2022-10-23T06:17:54;100557.13;;;10.19
24740;BMP280;45234;48.148;17.128;2022-10-23T06:20:21;100554.63;;;10.25
24740;BMP280;45234;48.148;17.128;2022-10-23T06:23:03;100563.50;;;10.31
24740;BMP280;45234;48.148;17.128;2022-10-23T06:25:49;100557.78;;;10.36
24740;BMP280;45234;48.148;17.128;2022-10-23T06:28:16;100554.81;;;10.39
24740;BMP280;45234;48.148;17.128;2022-10-23T06:30:47;100553.34;;;10.44
24740;BMP280;45234;48.148;17.128;2022-10-23T06:33:13;100559.56;;;10.50
24740;BMP280;45234;48.148;17.128;2022-10-23T06:35:40;100560.03;;;10.53
24740;BMP280;45234;48.148;17.128;2022-10-23T06:38:12;100557.91;;;10.57
24740;BMP280;45234;48.148;17.128;2022-10-23T06:40:51;100553.97;;;10.61
24740;BMP280;45234;48.148;17.128;2022-10-23T06:43:24;100558.00;;;10.64
24740;BMP280;45234;48.148;17.128;2022-10-23T06:46:10;100569.06;;;10.57
24740;BMP280;45234;48.148;17.128;2022-10-23T06:48:56;100565.44;;;10.52
24740;BMP280;45234;48.148;17.128;2022-10-23T06:51:26;100566.38;;;10.51
24740;BMP280;45234;48.148;17.128;2022-10-23T06:53:55;100566.56;;;10.49
24740;BMP280;45234;48.148;17.128;2022-10-23T06:56:51;100574.16;;;10.51
24740;BMP280;45234;48.148;17.128;2022-10-23T06:59:29;100575.41;;;10.55
24740;BMP280;45234;48.148;17.128;2022-10-23T07:01:56;100577.47;;;10.59
24740;BMP280;45234;48.148;17.128;2022-10-23T07:04:22;100570.78;;;10.65
24740;BMP280;45234;48.148;17.128;2022-10-23T07:06:49;100559.50;;;10.58
24740;BMP280;45234;48.148;17.128;2022-10-23T07:09:22;100550.38;;;10.62
24740;BMP280;45234;48.148;17.128;2022-10-23T07:11:53;100557.91;;;10.57
24740;BMP280;45234;48.148;17.128;2022-10-23T07:14:26;100549.88;;;10.52
24740;BMP280;45234;48.148;17.128;2022-10-23T07:16:53;100547.06;;;10.53
24740;BMP280;45234;48.148;17.128;2022-10-23T07:19:20;100549.22;;;10.65
24740;BMP280;45234;48.148;17.128;2022-10-23T07:21:47;100560.84;;;10.69
24740;BMP280;45234;48.148;17.128;2022-10-23T07:24:34;100563.72;;;10.74
24740;BMP280;45234;48.148;17.128;2022-10-23T07:27:12;100566.75;;;10.77
24740;BMP280;45234;48.148;17.128;2022-10-23T07:29:39;100560.31;;;10.88
24740;BMP280;45234;48.148;17.128;2022-10-23T07:32:05;100566.31;;;10.74
24740;BMP280;45234;48.148;17.128;2022-10-23T07:34:50;100563.25;;;10.70
24740;BMP280;45234;48.148;17.128;2022-10-23T07:37:28;100564.78;;;10.65
24740;BMP280;45234;48.148;17.128;2022-10-23T07:39:59;100558.59;;;10.80
24740;BMP280;45234;48.148;17.128;2022-10-23T07:42:26;100549.56;;;11.06
24740;BMP280;45234;48.148;17.128;2022-10-23T07:44:52;100551.69;;;11.17
24740;BMP280;45234;48.148;17.128;2022-10-23T07:47:19;100545.25;;;11.34
24740;BMP280;45234;48.148;17.128;2022-10-23T07:49:49;100548.66;;;11.35
24740;BMP280;45234;48.148;17.128;2022-10-23T07:52:18;100545.41;;;11.26
24740;BMP280;45234;48.148;17.128;2022-10-23T07:55:05;100541.50;;;11.15
24740;BMP280;45234;48.148;17.128;2022-10-23T07:57:34;100537.13;;;11.16
24740;BMP280;45234;48.148;17.128;2022-10-23T08:00:09;100543.97;;;11.23
24740;BMP280;45234;48.148;17.128;2022-10-23T08:02:39;100541.44;;;11.30
24740;BMP280;45234;48.148;17.128;2022-10-23T08:05:11;100541.38;;;11.23
24740;BMP280;45234;48.148;17.128;2022-10-23T08:07:49;100538.22;;;11.28
24740;BMP280;45234;48.148;17.128;2022-10-23T08:10:17;100546.28;;;11.54
24740;BMP280;45234;48.148;17.128;2022-10-23T08:12:44;100542.03;;;11.68
24740;BMP280;45234;48.148;17.128;2022-10-23T08:15:13;100554.16;;;11.89
24740;BMP280;45234;48.148;17.128;2022-10-23T08:17:57;100546.72;;;12.07
24740;BMP280;45234;48.148;17.128;2022-10-23T08:20:39;100556.66;;;12.25
24740;BMP280;45234;48.148;17.128;2022-10-23T08:23:07;100552.56;;;12.44
24740;BMP280;45234;48.148;17.128;2022-10-23T08:25:35;100556.66;;;12.59
24740;BMP280;45234;48.148;17.128;2022-10-23T08:28:01;100561.00;;;12.46
24740;BMP280;45234;48.148;17.128;2022-10-23T08:30:38;100575.53;;;12.34
24740;BMP280;45234;48.148;17.128;2022-10-23T08:33:05;100573.25;;;12.24
24740;BMP280;45234;48.148;17.128;2022-10-23T08:35:38;100576.13;;;12.42
24740;BMP280;45234;48.148;17.128;2022-10-23T08:38:06;100575.75;;;12.39
24740;BMP280;45234;48.148;17.128;2022-10-23T08:40:42;100562.78;;;12.45
24740;BMP280;45234;48.148;17.128;2022-10-23T08:46:43;100559.34;;;12.38
24740;BMP280;45234;48.148;17.128;2022-10-23T08:51:45;100547.81;;;12.47
24740;BMP280;45234;48.148;17.128;2022-10-23T08:56:56;100556.66;;;12.59
24740;BMP280;45234;48.148;17.128;2022-10-23T08:59:33;100569.84;;;12.58
24740;BMP280;45234;48.148;17.128;2022-10-23T09:02:25;100578.41;;;12.52
24740;BMP280;45234;48.148;17.128;2022-10-23T09:04:53;100579.50;;;12.64
24740;BMP280;45234;48.148;17.128;2022-10-23T09:08:06;100575.91;;;12.65
24740;BMP280;45234;48.148;17.128;2022-10-23T09:12:38;100564.69;;;12.64
24740;BMP280;45234;48.148;17.128;2022-10-23T09:17:57;100562.16;;;12.84
24740;BMP280;45234;48.148;17.128;2022-10-23T09:20:30;100568.75;;;12.80
24740;BMP280;45234;48.148;17.128;2022-10-23T09:22:58;100562.16;;;12.84
24740;BMP280;45234;48.148;17.128;2022-10-23T09:25:27;100565.22;;;12.88
24740;BMP280;45234;48.148;17.128;2022-10-23T09:27:58;100570.03;;;12.97
24740;BMP280;45234;48.148;17.128;2022-10-23T09:30:36;100560.38;;;12.85
24740;BMP280;45234;48.148;17.128;2022-10-23T09:33:23;100558.31;;;12.74
24740;BMP280;45234;48.148;17.128;2022-10-23T09:35:51;100562.50;;;12.68
24740;BMP280;45234;48.148;17.128;2022-10-23T09:40:52;100559.84;;;12.55
24740;BMP280;45234;48.148;17.128;2022-10-23T09:43:21;100554.59;;;12.48
24740;BMP280;45234;48.148;17.128;2022-10-23T09:45:58;100568.19;;;12.44
24740;BMP280;45234;48.148;17.128;2022-10-23T09:48:26;100555.00;;;12.45
24740;BMP280;45234;48.148;17.128;2022-10-23T09:50:54;100558.66;;;12.29
24740;BMP280;45234;48.148;17.128;2022-10-23T09:56:01;100540.94;;;12.40
24740;BMP280;45234;48.148;17.128;2022-10-23T10:01:21;100536.16;;;12.43
24740;BMP280;45234;48.148;17.128;2022-10-23T10:03:53;100526.56;;;12.44
24740;BMP280;45234;48.148;17.128;2022-10-23T10:06:28;100531.25;;;12.55
24740;BMP280;45234;48.148;17.128;2022-10-23T10:08:59;100531.44;;;12.60
24740;BMP280;45234;48.148;17.128;2022-10-23T10:11:29;100531.31;;;12.68
24740;BMP280;45234;48.148;17.128;2022-10-23T10:16:58;100517.72;;;12.79
24740;BMP280;45234;48.148;17.128;2022-10-23T10:19:30;100523.75;;;12.80
24740;BMP280;45234;48.148;17.128;2022-10-23T10:24:41;100506.56;;;12.85
24740;BMP280;45234;48.148;17.128;2022-10-23T10:32:19;100502.97;;;12.93
24740;BMP280;45234;48.148;17.128;2022-10-23T10:34:50;100502.09;;;12.73
24740;BMP280;45234;48.148;17.128;2022-10-23T10:40:15;100505.88;;;12.70
24740;BMP280;45234;48.148;17.128;2022-10-23T10:45:37;100514.53;;;12.84
24740;BMP280;45234;48.148;17.128;2022-10-23T10:48:25;100508.38;;;12.98
24740;BMP280;45234;48.148;17.128;2022-10-23T10:51:26;100503.97;;;12.98
24740;BMP280;45234;48.148;17.128;2022-10-23T10:56:28;100498.59;;;13.07
24740;BMP280;45234;48.148;17.128;2022-10-23T10:58:57;100484.09;;;12.84
24740;BMP280;45234;48.148;17.128;2022-10-23T11:01:26;100485.91;;;12.84
24740;BMP280;45234;48.148;17.128;2022-10-23T11:04:04;100481.13;;;12.74
24740;BMP280;45234;48.148;17.128;2022-10-23T11:06:35;100484.69;;;12.73
24740;BMP280;45234;48.148;17.128;2022-10-23T11:09:16;100478.31;;;12.82
24740;BMP280;45234;48.148;17.128;2022-10-23T11:11:46;100477.88;;;12.72
24740;BMP280;45234;48.148;17.128;2022-10-23T11:14:14;100474.66;;;12.70
24740;BMP280;45234;48.148;17.128;2022-10-23T11:16:44;100463.69;;;12.68
24740;BMP280;45234;48.148;17.128;2022-10-23T11:19:22;100465.88;;;12.64
24740;BMP280;45234;48.148;17.128;2022-10-23T11:37:23;100446.41;;;12.47
24740;BMP280;45234;48.148;17.128;2022-10-23T11:47:58;100438.63;;;12.60
24740;BMP280;45234;48.148;17.128;2022-10-23T11:50:26;100434.59;;;12.51
24740;BMP280;45234;48.148;17.128;2022-10-23T11:55:38;100437.19;;;12.45
24740;BMP280;45234;48.148;17.128;2022-10-23T11:58:24;100429.19;;;12.46
24740;BMP280;45234;48.148;17.128;2022-10-23T12:01:01;100431.03;;;12.59
24740;BMP280;45234;48.148;17.128;2022-10-23T12:03:35;100424.84;;;12.73
24740;BMP280;45234;48.148;17.128;2022-10-23T12:06:04;100413.47;;;12.68
24740;BMP280;45234;48.148;17.128;2022-10-23T12:08:34;100408.66;;;12.84
24740;BMP280;45234;48.148;17.128;2022-10-23T12:11:02;100403.47;;;12.84
24740;BMP280;45234;48.148;17.128;2022-10-23T12:16:02;100397.88;;;13.27
24740;BMP280;45234;48.148;17.128;2022-10-23T12:18:30;100398.91;;;13.19
24740;BMP280;45234;48.148;17.128;2022-10-23T12:20:57;100391.47;;;13.23
24740;BMP280;45234;48.148;17.128;2022-10-23T12:24:08;100385.69;;;13.21
24740;BMP280;45234;48.148;17.128;2022-10-23T12:26:41;100376.47;;;13.12
24740;BMP280;45234;48.148;17.128;2022-10-23T12:39:51;100357.44;;;12.78
24740;BMP280;45234;48.148;17.128;2022-10-23T12:42:14;100349.00;;;12.63
24740;BMP280;45234;48.148;17.128;2022-10-23T12:44:42;100347.41;;;12.62
24740;BMP280;45234;48.148;17.128;2022-10-23T12:47:14;100329.44;;;12.67
24740;BMP280;45234;48.148;17.128;2022-10-23T12:49:48;100336.44;;;12.80
24740;BMP280;45234;48.148;17.128;2022-10-23T12:52:17;100331.25;;;12.86
24740;BMP280;45234;48.148;17.128;2022-10-23T12:54:45;100329.00;;;12.70
24740;BMP280;45234;48.148;17.128;2022-10-23T12:57:14;100317.06;;;12.76
24740;BMP280;45234;48.148;17.128;2022-10-23T12:59:42;100313.22;;;12.65
24740;BMP280;45234;48.148;17.128;2022-10-23T13:04:45;100307.63;;;12.81
24740;BMP280;45234;48.148;17.128;2022-10-23T13:07:13;100323.25;;;12.88
24740;BMP280;45234;48.148;17.128;2022-10-23T13:09:41;100315.81;;;12.91
24740;BMP280;45234;48.148;17.128;2022-10-23T13:12:17;100328.63;;;13.19
24740;BMP280;45234;48.148;17.128;2022-10-23T13:14:59;100310.59;;;13.05
24740;BMP280;45234;48.148;17.128;2022-10-23T13:22:36;100293.41;;;12.90
24740;BMP280;45234;48.148;17.128;2022-10-23T13:25:25;100298.59;;;12.90
24740;BMP280;45234;48.148;17.128;2022-10-23T13:30:37;100311.03;;;12.88
24740;BMP280;45234;48.148;17.128;2022-10-23T13:33:13;100322.25;;;12.89
24740;BMP280;45234;48.148;17.128;2022-10-23T13:35:41;100310.59;;;13.05
24740;BMP280;45234;48.148;17.128;2022-10-23T13:38:07;100314.03;;;12.98
24740;BMP280;45234;48.148;17.128;2022-10-23T13:40:34;100300.19;;;13.05
24740;BMP280;45234;48.148;17.128;2022-10-23T13:43:01;100293.00;;;13.00
24740;BMP280;45234;48.148;17.128;2022-10-23T13:45:28;100292.22;;;13.06
24740;BMP280;45234;48.148;17.128;2022-10-23T13:47:54;100280.97;;;13.12
24740;BMP280;45234;48.148;17.128;2022-10-23T13:50:21;100280.97;;;13.19
24740;BMP280;45234;48.148;17.128;2022-10-23T13:52:48;100259.75;;;13.22
24740;BMP280;45234;48.148;17.128;2022-10-23T13:55:22;100265.13;;;13.27
24740;BMP280;45234;48.148;17.128;2022-10-23T13:57:48;100255.34;;;13.16
24740;BMP280;45234;48.148;17.128;2022-10-23T14:00:16;100256.16;;;13.16
24740;BMP280;45234;48.148;17.128;2022-10-23T14:02:43;100254.94;;;13.12
24740;BMP280;45234;48.148;17.128;2022-10-23T14:05:10;100251.75;;;13.17
24740;BMP280;45234;48.148;17.128;2022-10-23T14:07:37;100249.16;;;13.17
24740;BMP280;45234;48.148;17.128;2022-10-23T14:10:04;100250.97;;;13.10
24740;BMP280;45234;48.148;17.128;2022-10-23T14:12:36;100253.34;;;13.18
24740;BMP280;45234;48.148;17.128;2022-10-23T14:15:05;100245.09;;;13.41
24740;BMP280;45234;48.148;17.128;2022-10-23T14:17:33;100244.88;;;13.49
24740;BMP280;45234;48.148;17.128;2022-10-23T14:19:59;100256.81;;;13.63
24740;BMP280;45234;48.148;17.128;2022-10-23T14:22:30;100251.97;;;13.66
24740;BMP280;45234;48.148;17.128;2022-10-23T14:24:57;100265.56;;;13.75
24740;BMP280;45234;48.148;17.128;2022-10-23T14:27:23;100261.34;;;14.12
24740;BMP280;45234;48.148;17.128;2022-10-23T14:29:50;100270.31;;;13.91
24740;BMP280;45234;48.148;17.128;2022-10-23T14:32:17;100278.66;;;14.00
24740;BMP280;45234;48.148;17.128;2022-10-23T14:34:44;100265.94;;;13.79
24740;BMP280;45234;48.148;17.128;2022-10-23T14:37:15;100257.59;;;13.63
24740;BMP280;45234;48.148;17.128;2022-10-23T14:39:43;100252.38;;;13.63
24740;BMP280;45234;48.148;17.128;2022-10-23T14:42:15;100258.78;;;13.67
24740;BMP280;45234;48.148;17.128;2022-10-23T14:44:43;100249.16;;;13.68
24740;BMP280;45234;48.148;17.128;2022-10-23T14:47:10;100249.56;;;13.71
24740;BMP280;45234;48.148;17.128;2022-10-23T14:49:37;100256.81;;;13.63
24740;BMP280;45234;48.148;17.128;2022-10-23T14:52:06;100260.00;;;13.58
24740;BMP280;45234;48.148;17.128;2022-10-23T14:54:33;100250.84;;;13.49
24740;BMP280;45234;48.148;17.128;2022-10-23T14:57:02;100249.66;;;13.52
24740;BMP280;45234;48.148;17.128;2022-10-23T14:59:28;100264.25;;;13.59
24740;BMP280;45234;48.148;17.128;2022-10-23T15:01:55;100239.22;;;13.52
24740;BMP280;45234;48.148;17.128;2022-10-23T15:04:23;100237.63;;;13.51
24740;BMP280;45234;48.148;17.128;2022-10-23T15:06:49;100241.78;;;13.58
24740;BMP280;45234;48.148;17.128;2022-10-23T15:09:16;100253.22;;;13.57
24740;BMP280;45234;48.148;17.128;2022-10-23T15:11:45;100247.63;;;13.54
24740;BMP280;45234;48.148;17.128;2022-10-23T15:14:12;100248.00;;;13.57
24740;BMP280;45234;48.148;17.128;2022-10-23T15:16:39;100250.00;;;13.55
24740;BMP280;45234;48.148;17.128;2022-10-23T15:19:11;100254.00;;;13.58
24740;BMP280;45234;48.148;17.128;2022-10-23T15:21:44;100250.59;;;13.57
24740;BMP280;45234;48.148;17.128;2022-10-23T15:24:12;100237.56;;;13.57
24740;BMP280;45234;48.148;17.128;2022-10-23T15:26:39;100241.63;;;13.53
24740;BMP280;45234;48.148;17.128;2022-10-23T15:29:08;100237.63;;;13.51
24740;BMP280;45234;48.148;17.128;2022-10-23T15:34:06;100243.44;;;13.46
24740;BMP280;45234;48.148;17.128;2022-10-23T15:36:33;100241.03;;;13.45
24740;BMP280;45234;48.148;17.128;2022-10-23T15:39:00;100238.47;;;13.38
24740;BMP280;45234;48.148;17.128;2022-10-23T15:41:27;100229.66;;;13.39
24740;BMP280;45234;48.148;17.128;2022-10-23T15:43:56;100220.88;;;13.33
24740;BMP280;45234;48.148;17.128;2022-10-23T15:46:23;100221.88;;;13.32
24740;BMP280;45234;48.148;17.128;2022-10-23T15:48:49;100224.06;;;13.35
24740;BMP280;45234;48.148;17.128;2022-10-23T15:51:16;100221.06;;;13.39
24740;BMP280;45234;48.148;17.128;2022-10-23T15:53:43;100218.63;;;13.37
24740;BMP280;45234;48.148;17.128;2022-10-23T15:56:09;100234.88;;;13.39
24740;BMP280;45234;48.148;17.128;2022-10-23T15:58:36;100236.03;;;13.43
24740;BMP280;45234;48.148;17.128;2022-10-23T16:01:03;100240.84;;;13.46
24740;BMP280;45234;48.148;17.128;2022-10-23T16:03:35;100232.41;;;13.51
24740;BMP280;45234;48.148;17.128;2022-10-23T16:06:05;100227.22;;;13.51
24740;BMP280;45234;48.148;17.128;2022-10-23T16:08:33;100234.38;;;13.55
24740;BMP280;45234;48.148;17.128;2022-10-23T16:10:59;100240.38;;;13.56
24740;BMP280;45234;48.148;17.128;2022-10-23T16:13:26;100236.56;;;13.58
24740;BMP280;45234;48.148;17.128;2022-10-23T16:15:53;100238.22;;;13.59
24740;BMP280;45234;48.148;17.128;2022-10-23T16:18:20;100228.75;;;13.65
24740;BMP280;45234;48.148;17.128;2022-10-23T16:20:47;100213.91;;;13.65
24740;BMP280;45234;48.148;17.128;2022-10-23T16:23:16;100212.31;;;13.64